createdAt,value
2022-09-15T00:01:43.374Z,14.60
2022-09-15T00:04:10.436Z,14.60
2022-09-15T00:06:37.470Z,14.60
2022-09-15T00:09:04.702Z,14.60
2022-09-15T00:11:34.115Z,14.60
2022-09-15T00:14:03.759Z,14.60
2022-09-15T00:16:32.080Z,14.60
2022-09-15T00:19:00.639Z,14.60
2022-09-15T00:21:30.582Z,14.60
2022-09-15T00:23:59.171Z,14.60
2022-09-15T00:26:27.942Z,14.70
2022-09-15T00:28:56.248Z,14.70
2022-09-15T00:31:25.104Z,14.70
2022-09-15T00:33:55.056Z,14.70
2022-09-15T00:36:23.469Z,14.70
2022-09-15T00:38:51.710Z,14.70
2022-09-15T00:41:20.797Z,14.70
2022-09-15T00:43:58.615Z,14.70
2022-09-15T00:46:29.456Z,14.70
2022-09-15T00:49:01.986Z,14.70
2022-09-15T00:52:08.545Z,14.80
2022-09-15T00:54:47.865Z,14.80
2022-09-15T00:57:27.448Z,14.80
2022-09-15T00:59:56.348Z,14.80
2022-09-15T01:02:26.992Z,14.80
2022-09-15T01:04:58.328Z,14.80
2022-09-15T01:08:11.824Z,14.80
2022-09-15T01:10:43.507Z,14.80
2022-09-15T01:13:13.420Z,14.80
2022-09-15T01:15:54.682Z,14.80
2022-09-15T01:18:55.863Z,14.80
2022-09-15T01:21:45.188Z,14.80
2022-09-15T01:24:30.444Z,14.80
2022-09-15T01:27:24.442Z,14.80
2022-09-15T01:30:04.276Z,14.80
2022-09-15T01:33:05.015Z,14.80
2022-09-15T01:35:38.060Z,14.80
2022-09-15T01:38:32.179Z,14.80
2022-09-15T01:41:09.152Z,14.70
2022-09-15T01:43:43.017Z,14.70
2022-09-15T01:46:11.531Z,14.80
2022-09-15T01:48:40.961Z,14.70
2022-09-15T01:51:08.666Z,14.80
2022-09-15T01:53:36.031Z,14.80
2022-09-15T01:56:10.672Z,14.80
2022-09-15T01:58:44.721Z,14.80
2022-09-15T02:01:22.523Z,14.80
2022-09-15T02:03:55.682Z,14.80
2022-09-15T02:06:46.714Z,14.90
2022-09-15T02:09:20.670Z,14.80
2022-09-15T02:12:12.394Z,14.80
2022-09-15T02:14:57.689Z,14.90
2022-09-15T02:17:32.238Z,14.90
2022-09-15T02:20:41.566Z,14.90
2022-09-15T02:23:18.818Z,14.90
2022-09-15T02:25:51.783Z,14.90
2022-09-15T02:28:23.979Z,14.80
2022-09-15T02:30:53.388Z,14.80
2022-09-15T02:33:24.206Z,14.80
2022-09-15T02:35:52.596Z,14.80
2022-09-15T02:38:19.384Z,14.80
2022-09-15T02:40:46.863Z,14.80
2022-09-15T02:43:16.600Z,14.80
2022-09-15T02:45:43.889Z,14.80
2022-09-15T02:48:10.663Z,14.80
2022-09-15T02:50:38.414Z,14.80
2022-09-15T02:53:05.383Z,14.80
2022-09-15T02:55:32.277Z,14.90
2022-09-15T02:57:59.458Z,14.90
2022-09-15T03:00:28.504Z,14.80
2022-09-15T03:02:56.119Z,14.80
2022-09-15T03:05:29.194Z,14.80
2022-09-15T03:07:56.776Z,14.80
2022-09-15T03:10:25.008Z,14.80
2022-09-15T03:12:53.697Z,14.80
2022-09-15T03:15:23.379Z,14.80
2022-09-15T03:17:50.915Z,14.80
2022-09-15T03:20:24.069Z,14.80
2022-09-15T03:22:51.037Z,14.80
2022-09-15T03:25:18.054Z,14.80
2022-09-15T03:27:44.925Z,14.80
2022-09-15T03:30:13.728Z,14.70
2022-09-15T03:32:40.612Z,14.70
2022-09-15T03:35:08.017Z,14.70
2022-09-15T03:37:35.060Z,14.80
2022-09-15T03:40:03.598Z,14.80
2022-09-15T03:42:30.498Z,14.70
2022-09-15T03:44:57.295Z,14.70
2022-09-15T03:47:24.110Z,14.70
2022-09-15T03:49:50.976Z,14.70
2022-09-15T03:52:17.750Z,14.70
2022-09-15T03:54:44.498Z,14.70
2022-09-15T03:57:11.311Z,14.70
2022-09-15T03:59:38.223Z,14.70
2022-09-15T04:02:05.047Z,14.70
2022-09-15T04:04:31.893Z,14.70
2022-09-15T04:06:58.764Z,14.70
2022-09-15T04:09:25.795Z,14.70
2022-09-15T04:11:52.595Z,14.70
2022-09-15T04:14:19.347Z,14.70
2022-09-15T04:16:46.180Z,14.60
2022-09-15T04:19:13.698Z,14.60
2022-09-15T04:21:40.475Z,14.70
2022-09-15T04:24:07.676Z,14.60
2022-09-15T04:26:36.802Z,14.60
2022-09-15T04:29:06.007Z,14.70
2022-09-15T04:31:33.796Z,14.60
2022-09-15T04:34:01.317Z,14.60
2022-09-15T04:36:29.358Z,14.60
2022-09-15T04:38:58.202Z,14.60
2022-09-15T04:41:26.362Z,14.60
2022-09-15T04:43:53.537Z,14.50
2022-09-15T04:46:21.036Z,14.50
2022-09-15T04:48:49.333Z,14.50
2022-09-15T04:51:22.096Z,14.50
2022-09-15T04:53:49.342Z,14.50
2022-09-15T04:56:22.257Z,14.50
2022-09-15T04:59:03.177Z,14.50
2022-09-15T05:01:33.926Z,14.50
2022-09-15T05:04:03.896Z,14.50
2022-09-15T05:06:31.602Z,14.50
2022-09-15T05:08:58.595Z,14.50
2022-09-15T05:11:26.225Z,14.50
2022-09-15T05:13:53.427Z,14.50
2022-09-15T05:16:27.199Z,14.50
2022-09-15T05:18:57.086Z,14.50
2022-09-15T05:21:27.219Z,14.50
2022-09-15T05:23:54.532Z,14.40
2022-09-15T05:26:24.247Z,14.50
2022-09-15T05:28:51.389Z,14.40
2022-09-15T05:31:24.278Z,14.40
2022-09-15T05:33:52.651Z,14.40
2022-09-15T05:36:21.261Z,14.40
2022-09-15T05:38:48.486Z,14.40
2022-09-15T05:41:17.714Z,14.40
2022-09-15T05:43:46.228Z,14.40
2022-09-15T05:46:14.067Z,14.40
2022-09-15T05:48:41.072Z,14.40
2022-09-15T05:51:08.026Z,14.40
2022-09-15T05:53:35.885Z,14.40
2022-09-15T05:56:08.706Z,14.40
2022-09-15T05:58:35.755Z,14.40
2022-09-15T06:01:13.266Z,14.40
2022-09-15T06:03:40.755Z,14.40
2022-09-15T06:06:08.003Z,14.40
2022-09-15T06:08:37.562Z,14.40
2022-09-15T06:11:06.894Z,14.30
2022-09-15T06:13:33.941Z,14.30
2022-09-15T06:16:12.738Z,14.30
2022-09-15T06:18:40.953Z,14.30
2022-09-15T06:21:10.713Z,14.30
2022-09-15T06:23:38.277Z,14.40
2022-09-15T06:26:16.763Z,14.30
2022-09-15T06:28:52.319Z,14.40
2022-09-15T06:31:19.898Z,14.40
2022-09-15T06:33:51.165Z,14.30
2022-09-15T06:36:19.564Z,14.40
2022-09-15T06:38:47.342Z,14.40
2022-09-15T06:41:15.863Z,14.40
2022-09-15T06:43:43.427Z,14.30
2022-09-15T06:46:11.808Z,14.30
2022-09-15T06:48:39.686Z,14.30
2022-09-15T06:51:08.229Z,14.40
2022-09-15T06:53:37.663Z,14.40
2022-09-15T06:56:04.575Z,14.50
2022-09-15T06:58:32.099Z,14.50
2022-09-15T07:01:04.334Z,14.60
2022-09-15T07:03:31.785Z,14.50
2022-09-15T07:05:58.757Z,14.50
2022-09-15T07:08:26.386Z,14.60
2022-09-15T07:10:53.474Z,14.60
2022-09-15T07:13:20.438Z,14.60
2022-09-15T07:15:52.401Z,14.60
2022-09-15T07:18:19.423Z,14.70
2022-09-15T07:20:46.270Z,14.70
2022-09-15T07:23:13.202Z,14.70
2022-09-15T07:25:44.069Z,14.60
2022-09-15T07:28:12.078Z,14.60
2022-09-15T07:30:39.517Z,14.60
2022-09-15T07:33:07.489Z,14.60
2022-09-15T07:35:34.532Z,14.60
2022-09-15T07:38:01.499Z,14.60
2022-09-15T07:40:31.590Z,14.50
2022-09-15T07:43:05.928Z,14.40
2022-09-15T07:45:36.454Z,14.50
2022-09-15T07:48:09.008Z,14.50
2022-09-15T07:50:49.761Z,14.50
2022-09-15T07:53:25.883Z,14.40
2022-09-15T07:56:02.942Z,14.50
2022-09-15T07:58:31.760Z,14.50
2022-09-15T08:01:07.626Z,14.50
2022-09-15T08:03:46.623Z,14.50
2022-09-15T08:06:14.094Z,14.60
2022-09-15T08:08:45.456Z,14.60
2022-09-15T08:11:21.803Z,14.70
2022-09-15T08:14:42.463Z,14.70
2022-09-15T08:17:12.818Z,14.70
2022-09-15T08:19:40.555Z,14.80
2022-09-15T08:22:48.634Z,14.80
2022-09-15T08:28:46.184Z,14.80
2022-09-15T08:31:20.399Z,14.80
2022-09-15T08:33:50.529Z,14.90
2022-09-15T08:36:24.141Z,14.90
2022-09-15T08:38:51.368Z,14.90
2022-09-15T08:41:36.861Z,14.90
2022-09-15T08:44:34.846Z,14.90
2022-09-15T08:47:14.024Z,14.90
2022-09-15T08:50:20.602Z,14.90
2022-09-15T08:52:52.808Z,15.00
2022-09-15T08:55:50.338Z,15.00
2022-09-15T08:58:24.233Z,15.10
2022-09-15T09:01:10.922Z,15.10
2022-09-15T09:03:58.913Z,15.20
2022-09-15T09:06:44.867Z,15.20
2022-09-15T09:09:50.489Z,15.20
2022-09-15T09:16:55.882Z,15.30
2022-09-15T09:20:03.690Z,15.40
2022-09-15T09:22:36.602Z,15.40
2022-09-15T09:25:21.158Z,15.40
2022-09-15T09:28:14.374Z,15.60
2022-09-15T09:30:41.747Z,15.50
2022-09-15T09:33:30.328Z,15.60
2022-09-15T09:35:59.966Z,15.50
2022-09-15T09:38:36.709Z,15.40
2022-09-15T09:41:27.391Z,15.40
2022-09-15T09:43:55.918Z,15.30
2022-09-15T09:46:22.773Z,15.20
2022-09-15T09:48:58.677Z,15.30
2022-09-15T09:51:36.028Z,15.30
2022-09-15T09:54:17.324Z,15.20
2022-09-15T09:56:45.374Z,15.30
2022-09-15T09:59:38.463Z,15.20
2022-09-15T10:02:28.989Z,15.20
2022-09-15T10:05:17.642Z,15.20
2022-09-15T10:07:44.811Z,15.20
2022-09-15T10:10:28.805Z,15.30
2022-09-15T10:12:56.700Z,15.30
2022-09-15T10:15:26.206Z,15.30
2022-09-15T10:17:55.305Z,15.30
2022-09-15T10:20:33.261Z,15.30
2022-09-15T10:23:24.346Z,15.30
2022-09-15T10:25:59.458Z,15.30
2022-09-15T10:28:27.887Z,15.30
2022-09-15T10:31:06.549Z,15.30
2022-09-15T10:33:36.611Z,15.20
2022-09-15T10:36:06.889Z,15.20
2022-09-15T10:38:53.761Z,15.20
2022-09-15T10:41:32.371Z,15.20
2022-09-15T10:44:36.883Z,15.20
2022-09-15T10:47:24.874Z,15.20
2022-09-15T10:49:57.857Z,15.30
2022-09-15T10:52:38.122Z,15.20
2022-09-15T10:55:37.064Z,15.30
2022-09-15T10:58:23.171Z,15.20
2022-09-15T11:01:25.365Z,15.30
2022-09-15T11:04:11.500Z,15.30
2022-09-15T11:06:47.460Z,15.30
2022-09-15T11:09:23.387Z,15.40
2022-09-15T11:12:29.247Z,15.40
2022-09-15T11:15:25.597Z,15.50
2022-09-15T11:18:38.693Z,15.60
2022-09-15T11:21:21.630Z,15.60
2022-09-15T11:23:53.606Z,15.60
2022-09-15T11:26:35.210Z,15.60
2022-09-15T11:29:23.683Z,15.70
2022-09-15T11:32:00.424Z,15.70
2022-09-15T11:34:43.704Z,15.70
2022-09-15T11:37:17.192Z,15.70
2022-09-15T11:40:04.786Z,15.70
2022-09-15T11:42:51.822Z,15.70
2022-09-15T11:45:33.357Z,15.70
2022-09-15T11:48:28.608Z,15.70
2022-09-15T11:50:59.488Z,15.80
2022-09-15T11:53:30.948Z,15.90
2022-09-15T11:56:00.686Z,16.00
2022-09-15T11:58:36.349Z,16.00
2022-09-15T12:01:10.320Z,16.10
2022-09-15T12:03:59.510Z,16.00
2022-09-15T12:06:46.445Z,16.00
2022-09-15T12:09:16.506Z,16.10
2022-09-15T12:11:53.728Z,16.10
2022-09-15T12:14:41.269Z,16.10
2022-09-15T12:17:12.082Z,16.10
2022-09-15T12:19:51.544Z,16.10
2022-09-15T12:22:26.267Z,16.10
2022-09-15T12:25:11.294Z,16.10
2022-09-15T12:27:38.572Z,16.10
2022-09-15T12:30:06.322Z,16.10
2022-09-15T12:32:36.255Z,16.10
2022-09-15T12:35:31.174Z,16.10
2022-09-15T12:38:00.029Z,16.10
2022-09-15T12:40:39.992Z,16.10
2022-09-15T12:43:13.408Z,16.00
2022-09-15T12:45:48.135Z,16.10
2022-09-15T12:48:25.162Z,16.10
2022-09-15T12:50:55.882Z,16.10
2022-09-15T12:53:49.164Z,16.20
2022-09-15T12:56:27.960Z,16.30
2022-09-15T12:58:55.960Z,16.30
2022-09-15T13:01:22.883Z,16.30
2022-09-15T13:03:49.744Z,16.40
2022-09-15T13:06:21.059Z,16.30
2022-09-15T13:09:05.980Z,16.30
2022-09-15T13:11:42.820Z,16.30
2022-09-15T13:14:19.716Z,16.30
2022-09-15T13:17:14.190Z,16.20
2022-09-15T13:19:46.737Z,16.20
2022-09-15T13:22:23.933Z,16.10
2022-09-15T13:25:05.841Z,16.00
2022-09-15T13:27:45.267Z,15.80
2022-09-15T13:30:15.006Z,15.60
2022-09-15T13:33:08.974Z,15.50
2022-09-15T13:36:03.809Z,15.50
2022-09-15T13:38:50.178Z,15.40
2022-09-15T13:41:31.108Z,15.40
2022-09-15T13:44:33.210Z,15.50
2022-09-15T13:47:05.810Z,15.50
2022-09-15T13:49:47.687Z,15.50
2022-09-15T13:52:30.113Z,15.50
2022-09-15T13:55:17.392Z,15.60
2022-09-15T14:00:55.723Z,15.70
2022-09-15T14:03:50.142Z,15.70
2022-09-15T14:06:38.751Z,15.60
2022-09-15T14:09:34.744Z,15.70
2022-09-15T14:12:12.885Z,15.60
2022-09-15T14:14:53.721Z,15.60
2022-09-15T14:17:24.113Z,15.70
2022-09-15T14:19:53.572Z,15.70
2022-09-15T14:22:20.384Z,15.70
2022-09-15T14:24:47.418Z,15.70
2022-09-15T14:27:22.033Z,15.70
2022-09-15T14:29:54.385Z,15.70
2022-09-15T14:32:21.795Z,15.70
2022-09-15T14:34:49.091Z,15.70
2022-09-15T14:37:28.537Z,15.70
2022-09-15T14:39:58.191Z,15.80
2022-09-15T14:42:32.363Z,15.80
2022-09-15T14:48:01.406Z,15.70
2022-09-15T14:50:32.957Z,15.60
2022-09-15T14:53:23.043Z,15.50
2022-09-15T14:55:55.532Z,15.30
2022-09-15T14:58:25.989Z,15.30
2022-09-15T15:01:12.038Z,15.20
2022-09-15T15:03:59.563Z,15.20
2022-09-15T15:06:32.006Z,15.10
2022-09-15T15:09:21.587Z,15.00
2022-09-15T15:12:13.189Z,15.00
2022-09-15T15:14:41.315Z,15.00
2022-09-15T15:17:28.539Z,14.90
2022-09-15T15:20:08.015Z,14.90
2022-09-15T15:22:39.004Z,14.90
2022-09-15T15:25:24.604Z,14.90
2022-09-15T15:28:01.559Z,14.90
2022-09-15T15:30:35.971Z,14.90
2022-09-15T15:33:27.123Z,14.90
2022-09-15T15:36:06.644Z,14.90
2022-09-15T15:38:35.422Z,14.90
2022-09-15T15:41:05.544Z,14.90
2022-09-15T15:43:32.536Z,14.90
2022-09-15T15:46:01.748Z,15.00
2022-09-15T15:48:37.867Z,15.00
2022-09-15T15:51:06.778Z,15.00
2022-09-15T15:53:34.361Z,15.00
2022-09-15T15:56:02.879Z,15.00
2022-09-15T15:58:29.909Z,15.00
2022-09-15T16:00:57.556Z,15.00
2022-09-15T16:03:25.608Z,15.10
2022-09-15T16:05:59.788Z,15.10
2022-09-15T16:08:32.509Z,15.10
2022-09-15T16:11:01.554Z,15.20
2022-09-15T16:13:29.469Z,15.20
2022-09-15T16:15:58.932Z,15.20
2022-09-15T16:18:26.480Z,15.20
2022-09-15T16:20:54.103Z,15.10
2022-09-15T16:23:23.555Z,15.10
2022-09-15T16:26:07.303Z,15.20
2022-09-15T16:28:34.219Z,15.20
2022-09-15T16:31:01.391Z,15.20
2022-09-15T16:33:28.327Z,15.10
2022-09-15T16:36:06.834Z,15.10
2022-09-15T16:38:35.367Z,15.10
2022-09-15T16:41:06.345Z,15.10
2022-09-15T16:43:33.211Z,15.10
2022-09-15T16:46:00.111Z,15.10
2022-09-15T16:48:27.355Z,15.10
2022-09-15T16:51:24.696Z,15.10
2022-09-15T16:53:41.267Z,15.10
2022-09-15T16:56:11.664Z,15.00
2022-09-15T16:58:39.275Z,15.00
2022-09-15T17:01:07.221Z,15.10
2022-09-15T17:03:34.151Z,15.20
2022-09-15T17:06:02.097Z,15.10
2022-09-15T17:08:33.100Z,15.20
2022-09-15T17:11:02.822Z,15.10
2022-09-15T17:13:32.440Z,15.10
2022-09-15T17:16:00.967Z,15.10
2022-09-15T17:18:29.118Z,15.10
2022-09-15T17:20:56.290Z,15.00
2022-09-15T17:23:46.889Z,15.00
2022-09-15T17:26:17.973Z,15.00
2022-09-15T17:28:44.900Z,14.90
2022-09-15T17:31:16.139Z,14.90
2022-09-15T17:33:43.739Z,14.80
2022-09-15T17:36:11.132Z,14.80
2022-09-15T17:38:40.575Z,14.80
2022-09-15T17:41:13.562Z,14.80
2022-09-15T17:43:42.962Z,14.80
2022-09-15T17:46:09.966Z,14.70
2022-09-15T17:48:38.720Z,14.60
2022-09-15T17:51:07.189Z,14.60
2022-09-15T17:53:34.268Z,14.60
2022-09-15T17:56:01.499Z,14.60
2022-09-15T17:58:31.379Z,14.60
2022-09-15T18:00:58.838Z,14.60
2022-09-15T18:03:37.275Z,14.50
2022-09-15T18:06:07.680Z,14.50
2022-09-15T18:08:37.609Z,14.50
2022-09-15T18:11:06.026Z,14.50
2022-09-15T18:13:34.082Z,14.50
2022-09-15T18:16:06.286Z,14.50
2022-09-15T18:18:34.230Z,14.50
2022-09-15T18:21:01.847Z,14.50
2022-09-15T18:23:29.574Z,14.50
2022-09-15T18:25:57.233Z,14.40
2022-09-15T18:28:24.289Z,14.40
2022-09-15T18:30:51.762Z,14.40
2022-09-15T18:33:24.792Z,14.40
2022-09-15T18:35:56.500Z,14.20
2022-09-15T18:38:26.433Z,14.20
2022-09-15T18:40:56.076Z,14.20
2022-09-15T18:43:26.400Z,14.20
2022-09-15T18:45:59.405Z,14.10
2022-09-15T18:48:26.715Z,14.10
2022-09-15T18:50:55.054Z,14.10
2022-09-15T18:53:22.149Z,14.10
2022-09-15T18:55:49.172Z,14.10
2022-09-15T18:58:17.816Z,14.20
2022-09-15T19:00:46.039Z,14.10
2022-09-15T19:03:14.213Z,14.10
2022-09-15T19:05:42.697Z,14.10
2022-09-15T19:08:11.441Z,14.10
2022-09-15T19:10:41.484Z,14.00
2022-09-15T19:13:11.291Z,14.00
2022-09-15T19:15:43.526Z,14.00
2022-09-15T19:18:10.579Z,14.00
2022-09-15T19:20:37.598Z,13.80
2022-09-15T19:23:04.639Z,13.80
2022-09-15T19:25:31.838Z,13.80
2022-09-15T19:27:59.063Z,13.80
2022-09-15T19:30:26.347Z,13.70
2022-09-15T19:32:55.127Z,13.70
2022-09-15T19:35:23.066Z,13.70
2022-09-15T19:37:50.196Z,13.70
2022-09-15T19:40:17.603Z,13.60
2022-09-15T19:42:45.097Z,13.60
2022-09-15T19:45:13.247Z,13.60
2022-09-15T19:47:40.650Z,13.60
2022-09-15T19:50:10.036Z,13.60
2022-09-15T19:52:36.968Z,13.50
2022-09-15T19:55:05.132Z,13.60
2022-09-15T19:57:32.150Z,13.60
2022-09-15T19:59:59.043Z,13.50
2022-09-15T20:02:26.074Z,13.50
2022-09-15T20:04:53.050Z,13.50
2022-09-15T20:07:19.892Z,13.50
2022-09-15T20:09:47.740Z,13.50
2022-09-15T20:12:14.849Z,13.50
2022-09-15T20:14:41.805Z,13.40
2022-09-15T20:17:08.672Z,13.40
2022-09-15T20:19:37.121Z,13.30
2022-09-15T20:22:04.237Z,13.30
2022-09-15T20:24:31.344Z,13.20
2022-09-15T20:26:59.182Z,13.20
2022-09-15T20:29:25.982Z,13.20
2022-09-15T20:31:52.847Z,13.20
2022-09-15T20:34:19.848Z,13.20
2022-09-15T20:36:46.852Z,13.20
2022-09-15T20:39:15.451Z,13.20
2022-09-15T20:41:45.097Z,13.20
2022-09-15T20:44:12.744Z,13.10
2022-09-15T20:46:39.968Z,13.10
2022-09-15T20:49:07.672Z,13.20
2022-09-15T20:51:34.871Z,13.10
2022-09-15T20:54:04.239Z,13.10
2022-09-15T20:56:34.880Z,13.00
2022-09-15T20:59:02.959Z,13.00
2022-09-15T21:01:37.121Z,12.90
2022-09-15T21:04:06.831Z,13.00
2022-09-15T21:06:34.624Z,13.00
2022-09-15T21:09:01.704Z,12.90
2022-09-15T21:11:29.037Z,12.90
2022-09-15T21:13:57.552Z,12.90
2022-09-15T21:16:26.938Z,12.90
2022-09-15T21:18:55.429Z,12.90
2022-09-15T21:21:30.857Z,12.90
2022-09-15T21:24:01.791Z,12.90
2022-09-15T21:26:31.462Z,12.90
2022-09-15T21:28:58.574Z,12.90
2022-09-15T21:31:29.596Z,13.00
2022-09-15T21:33:59.787Z,12.90
2022-09-15T21:36:29.597Z,13.00
2022-09-15T21:38:58.180Z,12.90
2022-09-15T21:41:27.577Z,12.90
2022-09-15T21:43:55.749Z,12.90
2022-09-15T21:46:27.235Z,12.80
2022-09-15T21:48:56.481Z,12.90
2022-09-15T21:51:25.260Z,12.80
2022-09-15T21:53:59.861Z,12.80
2022-09-15T21:56:27.889Z,12.70
2022-09-15T21:58:54.945Z,12.80
2022-09-15T22:01:43.513Z,12.70
2022-09-15T22:04:10.785Z,12.70
2022-09-15T22:06:42.448Z,12.80
2022-09-15T22:09:13.305Z,12.70
2022-09-15T22:11:45.306Z,12.70
2022-09-15T22:14:13.165Z,12.70
2022-09-15T22:16:41.984Z,12.70
2022-09-15T22:19:11.138Z,12.70
2022-09-15T22:21:41.623Z,12.70
2022-09-15T22:24:13.708Z,12.70
2022-09-15T22:26:42.415Z,12.70
2022-09-15T22:29:12.534Z,12.70
2022-09-15T22:31:42.466Z,12.70
2022-09-15T22:34:09.724Z,12.70
2022-09-15T22:36:36.602Z,12.70
2022-09-15T22:39:05.732Z,12.70
2022-09-15T22:41:35.574Z,12.70
2022-09-15T22:44:03.647Z,12.70
2022-09-15T22:46:31.734Z,12.70
2022-09-15T22:48:58.582Z,12.70
2022-09-15T22:51:25.652Z,12.60
2022-09-15T22:53:54.597Z,12.60
2022-09-15T22:56:21.756Z,12.60
2022-09-15T22:58:51.090Z,12.50
2022-09-15T23:01:23.825Z,12.50
2022-09-15T23:03:51.661Z,12.60
2022-09-15T23:06:19.001Z,12.50
2022-09-15T23:08:53.826Z,12.50
2022-09-15T23:11:21.027Z,12.50
2022-09-15T23:13:48.335Z,12.50
2022-09-15T23:16:15.569Z,12.40
2022-09-15T23:18:42.968Z,12.40
2022-09-15T23:21:11.233Z,12.40
2022-09-15T23:23:39.960Z,12.30
2022-09-15T23:26:10.161Z,12.30
2022-09-15T23:28:39.285Z,12.40
2022-09-15T23:31:07.139Z,12.40
2022-09-15T23:33:34.683Z,12.40
2022-09-15T23:36:03.774Z,12.40
2022-09-15T23:38:31.685Z,12.30
2022-09-15T23:40:58.556Z,12.40
2022-09-15T23:43:25.424Z,12.40
2022-09-15T23:45:53.677Z,12.30
2022-09-15T23:48:26.968Z,12.30
2022-09-15T23:50:54.267Z,12.30
2022-09-15T23:53:21.097Z,12.30
2022-09-15T23:55:51.276Z,12.30
2022-09-15T23:58:20.925Z,12.30
